Time;durP1;ratioP1;P1;durP2;ratioP2;P2;SDS_P1;SDS_P2;PMS_P1;PMS_P2;Temp;Humidity;BMP_temperature;BMP_pressure;BME280_temperature;BME280_humidity;BME280_pressure;Samples;Min_cycle;Max_cycle;Signal;HPM_P1;HPM_P2
2022/07/24 00:01:13;;;;;;;11.73;10.83;;;;;;;18.68;100.00;97385.81;4972031;28;20490;-65
2022/07/24 00:03:41;;;;;;;10.93;10.13;;;;;;;18.54;100.00;97393.25;4988334;28;20307;-64
2022/07/24 00:06:12;;;;;;;12.57;11.57;;;;;;;18.53;100.00;97388.94;4941614;28;20711;-64
2022/07/24 00:08:40;;;;;;;12.30;11.43;;;;;;;18.52;100.00;97390.81;4983968;28;20236;-64
2022/07/24 00:11:08;;;;;;;12.50;11.60;;;;;;;18.55;100.00;97394.91;4926248;28;20209;-65
2022/07/24 00:13:37;;;;;;;12.73;11.60;;;;;;;18.42;100.00;97390.56;4968186;28;20557;-60
2022/07/24 00:16:06;;;;;;;11.57;10.67;;;;;;;18.40;100.00;97392.69;4973473;28;20327;-64
2022/07/24 00:18:34;;;;;;;12.17;11.30;;;;;;;18.33;100.00;97378.53;4969856;28;20213;-61
2022/07/24 00:21:02;;;;;;;12.10;11.10;;;;;;;18.39;100.00;97385.69;4988471;28;20267;-64
2022/07/24 00:23:32;;;;;;;12.77;11.80;;;;;;;18.32;100.00;97384.94;4985828;28;20255;-61
2022/07/24 00:26:01;;;;;;;12.93;11.93;;;;;;;18.34;100.00;97386.34;4944605;28;20308;-67
2022/07/24 00:28:29;;;;;;;12.70;11.70;;;;;;;18.21;100.00;97384.69;4982216;28;20749;-64
2022/07/24 00:30:57;;;;;;;12.87;12.07;;;;;;;18.20;100.00;97388.41;4984539;28;20209;-65
2022/07/24 00:33:26;;;;;;;13.50;12.53;;;;;;;18.23;100.00;97392.50;4956242;28;20209;-64
2022/07/24 00:35:54;;;;;;;14.00;12.97;;;;;;;18.23;100.00;97381.78;4985365;28;20507;-66
2022/07/24 00:38:22;;;;;;;14.87;13.77;;;;;;;18.23;100.00;97387.94;4968690;28;20271;-64
2022/07/24 00:40:52;;;;;;;14.53;13.40;;;;;;;18.14;100.00;97393.84;4935110;28;22472;-67
2022/07/24 00:43:21;;;;;;;14.03;13.03;;;;;;;18.19;100.00;97392.13;4980809;28;20878;-63
2022/07/24 00:45:49;;;;;;;14.97;13.77;;;;;;;18.22;100.00;97389.00;4986046;28;20338;-64
2022/07/24 00:48:17;;;;;;;15.33;14.13;;;;;;;18.28;100.00;97384.59;4955763;28;20213;-62
2022/07/24 00:50:47;;;;;;;15.30;14.20;;;;;;;18.25;100.00;97382.38;4988412;28;20276;-63
2022/07/24 00:53:16;;;;;;;14.80;13.60;;;;;;;18.23;100.00;97381.78;4970284;28;20271;-65
2022/07/24 00:55:45;;;;;;;15.50;14.03;;;;;;;18.06;100.00;97379.72;4986876;28;20283;-65
2022/07/24 00:58:14;;;;;;;16.47;14.77;;;;;;;18.09;100.00;97383.81;4937987;28;20214;-62
2022/07/24 01:00:42;;;;;;;15.20;14.03;;;;;;;18.04;100.00;97383.69;4986755;28;20214;-66
2022/07/24 01:03:11;;;;;;;13.97;12.87;;;;;;;18.08;100.00;97382.19;4973270;28;20564;-64
2022/07/24 01:05:39;;;;;;;14.33;13.33;;;;;;;18.04;100.00;97375.66;4982077;28;20236;-66
2022/07/24 01:08:07;;;;;;;14.83;13.63;;;;;;;18.10;100.00;97381.94;4986963;28;20310;-63
2022/07/24 01:10:35;;;;;;;14.80;13.50;;;;;;;18.11;100.00;97376.38;4990560;28;20460;-66
2022/07/24 01:13:03;;;;;;;14.70;13.53;;;;;;;18.11;100.00;97379.06;4945598;28;20541;-63
2022/07/24 01:15:33;;;;;;;14.03;12.93;;;;;;;18.03;100.00;97374.03;4987245;28;20502;-62
2022/07/24 01:18:02;;;;;;;14.93;13.83;;;;;;;18.02;100.00;97378.53;4989861;28;20318;-63
2022/07/24 01:20:31;;;;;;;15.10;14.00;;;;;;;17.95;100.00;97375.13;4973269;28;20460;-66
2022/07/24 01:23:00;;;;;;;15.27;13.97;;;;;;;17.93;100.00;97379.88;4969299;28;20619;-64
2022/07/24 01:25:29;;;;;;;14.97;13.87;;;;;;;17.90;100.00;97383.03;4987652;28;20264;-65
2022/07/24 01:27:57;;;;;;;15.13;13.93;;;;;;;17.81;100.00;97381.69;4968447;28;20216;-66
2022/07/24 01:30:26;;;;;;;15.10;13.90;;;;;;;17.85;100.00;97382.88;4949130;28;20495;-65
2022/07/24 01:32:54;;;;;;;15.07;13.87;;;;;;;17.89;100.00;97382.19;4988018;28;20209;-67
2022/07/24 01:35:22;;;;;;;15.70;14.40;;;;;;;17.87;100.00;97391.50;4968307;28;20730;-63
2022/07/24 01:37:51;;;;;;;15.23;14.00;;;;;;;17.84;100.00;97387.41;4990298;28;20237;-66
2022/07/24 01:40:22;;;;;;;16.43;15.00;;;;;;;17.86;100.00;97388.00;4984124;28;20571;-66
2022/07/24 01:42:50;;;;;;;15.87;14.67;;;;;;;17.81;100.00;97384.38;4992073;28;20625;-66
2022/07/24 01:45:18;;;;;;;16.13;14.93;;;;;;;17.81;100.00;97390.53;4939678;28;20766;-67
2022/07/24 01:47:47;;;;;;;15.40;14.37;;;;;;;17.68;100.00;97382.69;4991289;28;20297;-66
2022/07/24 01:50:15;;;;;;;15.23;13.97;;;;;;;17.69;100.00;97387.81;4967534;28;20205;-62
2022/07/24 01:52:44;;;;;;;15.73;14.37;;;;;;;17.68;100.00;97391.53;4989576;28;20205;-64
2022/07/24 01:55:12;;;;;;;14.53;13.40;;;;;;;17.73;100.00;97385.50;4989700;28;20639;-60
2022/07/24 01:57:41;;;;;;;15.53;14.40;;;;;;;17.80;100.00;97383.56;4988883;28;20583;-64
2022/07/24 02:00:12;;;;;;;16.50;15.10;;;;;;;17.86;100.00;97387.19;4959360;28;20705;-63
2022/07/24 02:02:42;;;;;;;16.13;14.73;;;;;;;17.85;100.00;97391.72;4987244;28;20208;-67
2022/07/24 02:05:10;;;;;;;16.60;15.20;;;;;;;17.93;100.00;97399.44;4986664;28;20221;-64
2022/07/24 02:07:38;;;;;;;15.83;14.53;;;;;;;17.99;100.00;97399.59;4965144;28;22567;-65
2022/07/24 02:10:07;;;;;;;16.23;14.93;;;;;;;18.07;100.00;97397.44;4987001;28;20237;-63
2022/07/24 02:12:35;;;;;;;15.43;14.33;;;;;;;18.10;100.00;97404.22;4985484;28;20472;-66
2022/07/24 02:15:06;;;;;;;15.97;14.70;;;;;;;18.05;100.00;97402.22;4971897;28;20503;-63
2022/07/24 02:17:34;;;;;;;15.13;13.93;;;;;;;18.02;100.00;97393.84;4917123;28;20226;-62
2022/07/24 02:20:02;;;;;;;15.13;14.00;;;;;;;18.04;100.00;97392.53;4971594;28;20450;-63
2022/07/24 02:22:30;;;;;;;16.10;14.87;;;;;;;17.98;100.00;97390.75;4990260;28;20240;-61
2022/07/24 02:24:58;;;;;;;15.90;14.70;;;;;;;17.94;100.00;97386.88;4973966;28;20252;-65
2022/07/24 02:27:26;;;;;;;16.27;14.87;;;;;;;17.83;100.00;97391.13;4989035;28;20303;-62
2022/07/24 02:29:54;;;;;;;16.07;14.67;;;;;;;17.86;100.00;97389.88;4987076;28;20403;-63
2022/07/24 02:32:24;;;;;;;15.23;14.13;;;;;;;17.89;100.00;97381.38;4943381;28;20232;-66
2022/07/24 02:34:52;;;;;;;16.27;15.03;;;;;;;17.90;100.00;97393.75;4986797;28;20264;-64
2022/07/24 02:37:20;;;;;;;15.13;14.03;;;;;;;17.92;100.00;97381.72;4988069;28;20477;-65
2022/07/24 02:39:48;;;;;;;17.03;15.73;;;;;;;17.82;100.00;97392.19;4971183;28;20321;-64
2022/07/24 02:42:16;;;;;;;15.50;14.23;;;;;;;17.89;100.00;97389.44;4990270;28;20292;-64
2022/07/24 02:44:45;;;;;;;16.50;14.90;;;;;;;17.90;100.00;97389.19;4985409;28;20347;-64
2022/07/24 02:47:13;;;;;;;17.37;16.10;;;;;;;17.89;100.00;97392.91;4986397;28;20644;-65
2022/07/24 02:49:42;;;;;;;17.43;16.00;;;;;;;17.83;100.00;97393.81;4937554;28;20218;-65
2022/07/24 02:52:10;;;;;;;16.00;14.77;;;;;;;17.82;100.00;97402.91;4988052;28;20569;-66
2022/07/24 02:54:38;;;;;;;16.13;14.93;;;;;;;17.85;100.00;97399.75;4987221;28;20634;-63
2022/07/24 02:57:06;;;;;;;16.13;14.87;;;;;;;17.79;100.00;97398.00;4971664;28;20257;-65
2022/07/24 02:59:34;;;;;;;15.13;13.97;;;;;;;17.86;100.00;97397.91;4984158;28;20635;-63
2022/07/24 03:02:02;;;;;;;15.07;13.87;;;;;;;17.88;100.00;97401.19;4986999;28;20770;-65
2022/07/24 03:04:30;;;;;;;15.67;14.57;;;;;;;17.84;100.00;97402.69;4939510;28;20213;-65
2022/07/24 03:06:59;;;;;;;16.47;15.23;;;;;;;17.73;100.00;97399.69;4985323;28;20504;-66
2022/07/24 03:09:27;;;;;;;16.97;15.50;;;;;;;17.73;100.00;97402.38;4991469;28;20755;-65
2022/07/24 03:11:55;;;;;;;16.90;15.60;;;;;;;17.70;100.00;97407.38;4971784;28;20385;-66
2022/07/24 03:14:23;;;;;;;17.20;15.87;;;;;;;17.72;100.00;97402.63;4990986;28;20735;-66
2022/07/24 03:16:51;;;;;;;17.27;15.87;;;;;;;17.69;100.00;97408.44;4984386;28;20344;-64
2022/07/24 03:19:19;;;;;;;17.73;16.37;;;;;;;17.62;100.00;97398.63;4941841;28;20224;-64
2022/07/24 03:21:47;;;;;;;16.93;15.73;;;;;;;17.67;100.00;97405.97;4982396;28;20518;-65
2022/07/24 03:24:17;;;;;;;16.50;14.93;;;;;;;17.61;100.00;97405.00;4986761;28;20563;-62
2022/07/24 03:26:45;;;;;;;16.10;14.90;;;;;;;17.68;100.00;97402.25;4985173;28;20259;-62
2022/07/24 03:29:13;;;;;;;15.87;14.70;;;;;;;17.63;100.00;97402.09;4973595;28;20299;-65
2022/07/24 03:31:42;;;;;;;17.73;16.23;;;;;;;17.52;100.00;97405.53;4986795;28;20649;-62
2022/07/24 03:34:10;;;;;;;16.37;14.93;;;;;;;17.44;100.00;97407.47;4988561;28;20541;-65
2022/07/24 03:36:38;;;;;;;16.67;15.47;;;;;;;17.41;100.00;97412.44;4940034;28;20222;-64
2022/07/24 03:39:07;;;;;;;16.27;14.90;;;;;;;17.37;100.00;97406.69;4989162;28;20445;-67
2022/07/24 03:41:37;;;;;;;17.70;16.43;;;;;;;17.27;100.00;97407.25;4984311;28;20201;-64
2022/07/24 03:44:06;;;;;;;16.43;15.13;;;;;;;17.21;100.00;97400.91;4969158;28;20241;-67
2022/07/24 03:46:34;;;;;;;16.60;15.40;;;;;;;17.14;100.00;97407.34;4987214;28;20340;-63
2022/07/24 03:49:03;;;;;;;16.30;15.00;;;;;;;17.09;100.00;97399.16;4971991;28;20327;-65
2022/07/24 03:51:31;;;;;;;17.50;16.03;;;;;;;17.06;100.00;97398.56;4941769;28;20247;-64
2022/07/24 03:54:02;;;;;;;17.47;16.07;;;;;;;17.13;100.00;97400.34;4981840;28;20444;-64
2022/07/24 03:56:30;;;;;;;17.20;15.80;;;;;;;17.04;100.00;97399.81;4989183;28;20310;-63
2022/07/24 03:59:02;;;;;;;16.83;15.53;;;;;;;17.12;100.00;97399.56;4968247;28;21097;-62
2022/07/24 04:01:31;;;;;;;16.20;14.93;;;;;;;17.19;100.00;97402.97;4983420;28;20241;-64
2022/07/24 04:04:04;;;;;;;16.20;15.00;;;;;;;17.10;100.00;97406.16;4982432;28;20389;-65
2022/07/24 04:06:33;;;;;;;17.27;15.97;;;;;;;17.00;100.00;97403.97;4973328;28;20225;-63
2022/07/24 04:09:03;;;;;;;17.53;16.07;;;;;;;17.06;100.00;97406.59;4958276;28;20863;-64
2022/07/24 04:11:31;;;;;;;17.30;16.00;;;;;;;16.91;100.00;97406.09;4983292;28;20206;-62
2022/07/24 04:14:01;;;;;;;17.40;16.00;;;;;;;17.02;100.00;97416.09;4985161;28;20486;-65
2022/07/24 04:16:29;;;;;;;17.37;15.97;;;;;;;17.00;100.00;97426.22;4971324;28;20359;-62
2022/07/24 04:18:57;;;;;;;18.93;17.53;;;;;;;16.92;100.00;97418.44;4984427;28;20574;-63
2022/07/24 04:21:31;;;;;;;17.60;16.13;;;;;;;17.01;100.00;97422.50;4976130;28;20781;-62
2022/07/24 04:24:00;;;;;;;18.03;16.73;;;;;;;17.13;100.00;97430.63;4913899;28;20336;-64
2022/07/24 04:26:28;;;;;;;16.27;15.07;;;;;;;17.18;100.00;97425.44;4957531;28;20243;-61
2022/07/24 04:28:56;;;;;;;17.33;16.00;;;;;;;17.25;100.00;97422.72;4986055;28;20236;-61
2022/07/24 04:31:25;;;;;;;17.87;16.57;;;;;;;17.27;100.00;97419.78;4964316;28;20757;-61
2022/07/24 04:33:55;;;;;;;17.97;16.47;;;;;;;17.46;100.00;97417.94;4985788;28;20304;-62
2022/07/24 04:36:23;;;;;;;17.47;16.17;;;;;;;17.45;100.00;97416.31;4989238;28;20221;-64
2022/07/24 04:38:51;;;;;;;17.10;15.70;;;;;;;17.53;100.00;97416.00;4991015;28;20791;-63
2022/07/24 04:41:19;;;;;;;17.20;15.80;;;;;;;17.60;100.00;97414.06;4941124;28;20592;-64
2022/07/24 04:43:48;;;;;;;16.90;15.50;;;;;;;17.63;100.00;97410.97;4991328;28;20239;-63
2022/07/24 04:46:16;;;;;;;17.13;15.80;;;;;;;17.71;100.00;97417.06;4971873;28;21108;-65
2022/07/24 04:48:45;;;;;;;18.30;16.80;;;;;;;17.72;100.00;97418.69;4994259;28;20208;-65
2022/07/24 04:51:14;;;;;;;17.30;16.10;;;;;;;17.84;100.00;97416.88;4990787;28;20209;-66
2022/07/24 04:53:42;;;;;;;17.20;15.77;;;;;;;17.91;100.00;97422.97;4992984;28;20291;-65
2022/07/24 04:56:10;;;;;;;17.03;15.77;;;;;;;17.99;100.00;97413.81;4939883;28;20688;-62
2022/07/24 04:58:38;;;;;;;17.53;16.23;;;;;;;18.13;100.00;97422.53;4926431;28;20329;-64
2022/07/24 05:01:06;;;;;;;17.70;16.37;;;;;;;18.20;100.00;97419.78;4987125;28;20237;-66
2022/07/24 05:03:34;;;;;;;17.43;16.10;;;;;;;18.34;100.00;97423.06;4943872;28;20861;-63
2022/07/24 05:06:04;;;;;;;18.13;16.73;;;;;;;18.61;100.00;97428.88;4985575;28;22202;-63
2022/07/24 05:08:32;;;;;;;17.07;15.67;;;;;;;18.83;100.00;97428.31;4985511;28;20529;-65
2022/07/24 05:11:00;;;;;;;17.70;16.37;;;;;;;18.98;100.00;97430.59;4985361;28;20292;-64
2022/07/24 05:13:28;;;;;;;15.37;14.27;;;;;;;19.08;100.00;97438.88;4935899;28;20316;-64
2022/07/24 05:15:56;;;;;;;16.67;15.30;;;;;;;19.02;100.00;97431.75;4986903;28;20573;-64
2022/07/24 05:18:24;;;;;;;16.10;14.87;;;;;;;19.01;100.00;97430.13;4946625;28;20264;-64
2022/07/24 05:20:52;;;;;;;16.73;15.47;;;;;;;19.00;100.00;97433.88;4985888;28;20993;-63
2022/07/24 05:23:22;;;;;;;17.00;15.70;;;;;;;18.97;100.00;97428.94;4988503;28;20213;-60
2022/07/24 05:25:50;;;;;;;15.70;14.60;;;;;;;19.03;100.00;97432.59;4984661;28;20521;-66
2022/07/24 05:28:18;;;;;;;16.57;15.40;;;;;;;19.14;100.00;97423.72;4945952;28;20709;-63
2022/07/24 05:30:46;;;;;;;16.70;15.40;;;;;;;19.31;100.00;97437.25;4987230;28;20426;-65
2022/07/24 05:33:14;;;;;;;16.30;15.10;;;;;;;19.52;100.00;97435.84;4976492;28;20733;-65
2022/07/24 05:35:43;;;;;;;17.07;15.67;;;;;;;19.77;100.00;97436.59;4969543;28;20292;-64
2022/07/24 05:38:16;;;;;;;14.87;13.67;;;;;;;19.85;100.00;97422.00;4941484;28;20216;-67
2022/07/24 05:40:45;;;;;;;16.13;15.03;;;;;;;19.92;100.00;97430.75;4986849;28;20267;-63
2022/07/24 05:43:16;;;;;;;15.73;14.53;;;;;;;19.93;100.00;97427.03;4950909;28;20788;-65
2022/07/24 05:45:44;;;;;;;15.87;14.47;;;;;;;19.90;100.00;97420.25;4987473;28;20225;-63
2022/07/24 05:48:12;;;;;;;15.87;14.73;;;;;;;19.92;100.00;97422.69;4973876;28;21770;-59
2022/07/24 05:50:41;;;;;;;16.43;15.13;;;;;;;20.02;100.00;97424.78;4977065;28;20716;-64
2022/07/24 05:53:09;;;;;;;15.67;14.37;;;;;;;20.31;100.00;97424.78;4988458;28;20205;-63
2022/07/24 05:55:37;;;;;;;15.93;14.80;;;;;;;20.47;100.00;97426.69;4974275;28;20314;-62
2022/07/24 05:58:06;;;;;;;17.90;16.33;;;;;;;20.54;100.00;97421.16;4952021;28;20236;-64
2022/07/24 06:00:34;;;;;;;16.07;14.87;;;;;;;20.63;100.00;97433.16;4990347;28;20817;-65
2022/07/24 06:03:03;;;;;;;15.27;14.23;;;;;;;20.80;100.00;97429.66;4968758;28;20527;-64
2022/07/24 06:05:31;;;;;;;15.30;14.20;;;;;;;20.90;100.00;97429.03;4968827;28;20214;-64
2022/07/24 06:07:59;;;;;;;14.43;13.43;;;;;;;21.04;100.00;97433.03;4983525;28;20283;-62
2022/07/24 06:10:27;;;;;;;14.70;13.60;;;;;;;21.25;100.00;97426.09;4987389;28;20237;-66
2022/07/24 06:12:55;;;;;;;15.30;14.20;;;;;;;21.24;100.00;97439.78;4988784;28;20240;-64
2022/07/24 06:15:25;;;;;;;15.63;14.43;;;;;;;21.26;100.00;97440.34;4946198;28;20283;-66
2022/07/24 06:17:53;;;;;;;15.30;14.10;;;;;;;21.20;100.00;97428.69;4978737;28;20296;-64
2022/07/24 06:20:21;;;;;;;13.33;12.20;;;;;;;21.29;100.00;97433.66;4972448;28;20268;-66
2022/07/24 06:22:50;;;;;;;14.50;13.50;;;;;;;21.40;100.00;97433.56;4988927;28;20209;-64
2022/07/24 06:25:18;;;;;;;14.33;13.23;;;;;;;21.55;100.00;97432.94;4991049;28;20452;-62
2022/07/24 06:27:48;;;;;;;13.90;12.77;;;;;;;21.51;100.00;97431.00;4989735;28;20237;-59
2022/07/24 06:30:16;;;;;;;14.80;13.80;;;;;;;21.62;100.00;97430.06;4945692;28;20914;-62
2022/07/24 06:32:46;;;;;;;13.63;12.43;;;;;;;21.73;100.00;97441.00;4936295;28;20213;-63
2022/07/24 06:35:14;;;;;;;11.90;11.00;;;;;;;21.87;100.00;97434.19;4964308;28;20690;-56
2022/07/24 06:37:42;;;;;;;13.87;12.87;;;;;;;21.88;100.00;97430.44;4986605;28;20311;-61
2022/07/24 06:40:15;;;;;;;12.77;11.90;;;;;;;21.93;100.00;97430.50;4967694;28;20209;-58
2022/07/24 06:42:43;;;;;;;13.20;12.13;;;;;;;22.20;100.00;97432.41;4988530;28;20238;-63
2022/07/24 06:45:13;;;;;;;13.60;12.53;;;;;;;22.25;100.00;97435.16;4987752;28;20256;-61
2022/07/24 06:47:41;;;;;;;12.53;11.63;;;;;;;22.54;100.00;97434.94;4940640;28;20232;-62
2022/07/24 06:50:12;;;;;;;12.63;11.70;;;;;;;22.94;100.00;97422.03;4988352;28;20202;-62
2022/07/24 06:52:40;;;;;;;11.77;10.97;;;;;;;23.27;100.00;97419.31;4988764;28;20363;-64
2022/07/24 06:55:09;;;;;;;11.43;10.53;;;;;;;23.61;100.00;97418.97;4987367;28;20363;-66
2022/07/24 06:57:38;;;;;;;11.63;10.83;;;;;;;23.69;100.00;97433.88;4973432;28;20445;-64
2022/07/24 07:00:08;;;;;;;11.67;10.77;;;;;;;23.76;100.00;97428.25;4985771;28;20731;-64
2022/07/24 07:02:37;;;;;;;10.40;9.60;;;;;;;23.53;100.00;97430.28;4943535;28;25822;-64
2022/07/24 07:05:06;;;;;;;13.37;12.07;;;;;;;23.05;100.00;97433.75;4985248;28;20205;-62
2022/07/24 07:07:36;;;;;;;11.47;10.67;;;;;;;23.35;100.00;97439.63;4981966;28;20746;-63
2022/07/24 07:10:06;;;;;;;10.93;9.93;;;;;;;23.70;100.00;97435.50;4985392;28;20237;-63
2022/07/24 07:12:34;;;;;;;10.67;9.87;;;;;;;24.03;100.00;97433.50;4970675;28;20311;-64
2022/07/24 07:15:08;;;;;;;10.00;9.23;;;;;;;24.32;100.00;97435.75;4986269;28;20263;-66
2022/07/24 07:17:38;;;;;;;10.23;9.43;;;;;;;24.24;100.00;97431.66;4936705;28;20298;-67
2022/07/24 07:20:07;;;;;;;10.67;9.77;;;;;;;24.27;100.00;97428.44;4982905;28;20217;-63
2022/07/24 07:22:37;;;;;;;10.43;9.73;;;;;;;24.14;100.00;97428.94;4981562;28;20370;-66
2022/07/24 07:25:06;;;;;;;10.87;10.07;;;;;;;24.09;100.00;97427.03;4987367;28;20292;-63
2022/07/24 07:27:35;;;;;;;9.63;8.97;;;;;;;24.07;100.00;97428.38;4970806;28;20480;-65
2022/07/24 07:30:07;;;;;;;10.20;9.53;;;;;;;24.10;100.00;97430.56;4987808;28;20219;-63
2022/07/24 07:32:35;;;;;;;10.10;9.23;;;;;;;24.24;100.00;97434.38;4982858;28;20780;-66
2022/07/24 07:35:04;;;;;;;10.57;9.77;;;;;;;24.03;100.00;97427.25;4942029;28;20629;-65
2022/07/24 07:37:49;;;;;;;10.63;9.93;;;;;;;24.08;100.00;97425.41;4985647;28;20288;-65
2022/07/24 07:40:17;;;;;;;10.30;9.50;;;;;;;24.25;100.00;97433.31;4984179;28;20457;-63
2022/07/24 07:42:45;;;;;;;10.17;9.43;;;;;;;24.41;100.00;97427.91;4966075;28;20208;-65
2022/07/24 07:45:14;;;;;;;10.30;9.50;;;;;;;24.65;100.00;97435.53;4981587;28;20224;-63
2022/07/24 07:47:42;;;;;;;11.20;10.27;;;;;;;24.64;100.00;97433.91;4986222;28;20232;-64
2022/07/24 07:50:10;;;;;;;10.13;9.47;;;;;;;24.80;100.00;97426.63;4941311;28;20276;-62
2022/07/24 07:52:39;;;;;;;9.77;9.17;;;;;;;24.99;100.00;97427.69;4983999;28;20260;-63
2022/07/24 07:55:09;;;;;;;10.00;9.30;;;;;;;24.88;100.00;97431.50;4982922;28;20212;-66
2022/07/24 07:57:39;;;;;;;10.20;9.40;;;;;;;24.57;100.00;97431.44;4968838;28;20316;-66
2022/07/24 08:00:28;;;;;;;10.03;9.33;;;;;;;24.78;100.00;97421.47;4980784;28;20873;-66
2022/07/24 08:02:56;;;;;;;9.70;9.10;;;;;;;24.77;100.00;97421.75;4986379;28;20208;-65
2022/07/24 08:05:24;;;;;;;12.27;11.47;;;;;;;24.87;100.00;97424.47;4941790;28;20831;-64
2022/07/24 08:07:52;;;;;;;10.10;9.40;;;;;;;24.85;100.00;97426.63;4976292;28;20750;-66
2022/07/24 08:10:22;;;;;;;9.83;9.20;;;;;;;25.02;100.00;97420.13;4987946;28;20205;-66
2022/07/24 08:12:50;;;;;;;9.03;8.43;;;;;;;25.03;100.00;97422.56;4969337;28;20308;-67
2022/07/24 08:15:18;;;;;;;10.33;9.53;;;;;;;25.21;100.00;97423.09;4985712;28;20257;-66
2022/07/24 08:17:46;;;;;;;10.00;9.33;;;;;;;25.43;100.00;97431.72;4986245;28;20229;-66
2022/07/24 08:20:14;;;;;;;9.03;8.43;;;;;;;25.41;96.14;97431.16;4943287;28;20221;-66
2022/07/24 08:22:42;;;;;;;10.20;9.40;;;;;;;25.41;95.71;97419.53;4978813;28;20514;-65
2022/07/24 08:25:10;;;;;;;9.97;9.27;;;;;;;25.55;92.60;97422.47;4984123;28;20256;-63
2022/07/24 08:27:47;;;;;;;8.93;8.33;;;;;;;25.72;97.51;97416.72;4965145;28;20598;-64
2022/07/24 08:30:16;;;;;;;8.70;8.10;;;;;;;25.76;93.27;97417.81;4987721;28;20754;-66
2022/07/24 08:32:44;;;;;;;8.80;8.20;;;;;;;25.77;85.54;97418.63;4983799;28;20247;-65
2022/07/24 08:35:14;;;;;;;8.80;8.30;;;;;;;25.80;87.14;97416.19;4942730;28;20681;-66
2022/07/24 08:37:43;;;;;;;8.53;7.97;;;;;;;26.10;89.46;97416.31;4982129;28;20197;-65
2022/07/24 08:40:12;;;;;;;8.80;8.17;;;;;;;26.12;85.00;97408.69;4935048;28;20599;-65
2022/07/24 08:42:41;;;;;;;8.37;7.87;;;;;;;26.23;82.97;97406.75;4985456;28;20205;-66
2022/07/24 08:45:10;;;;;;;8.90;8.30;;;;;;;26.20;76.73;97402.69;4966152;28;20514;-65
2022/07/24 08:47:41;;;;;;;9.50;8.83;;;;;;;26.23;81.02;97404.03;4983674;28;20216;-66
2022/07/24 08:50:10;;;;;;;9.07;8.43;;;;;;;26.44;70.94;97404.72;4967661;28;20231;-65
2022/07/24 08:52:39;;;;;;;8.70;8.00;;;;;;;26.65;70.36;97410.00;4984029;28;20206;-66
2022/07/24 08:55:12;;;;;;;8.00;7.40;;;;;;;26.84;74.38;97418.28;4938317;28;22047;-65
2022/07/24 08:57:41;;;;;;;6.70;6.20;;;;;;;26.67;53.68;97408.63;4984568;28;20617;-65
2022/07/24 09:00:11;;;;;;;7.13;6.63;;;;;;;26.51;50.60;97412.53;4980534;28;21593;-64
2022/07/24 09:02:40;;;;;;;7.90;7.40;;;;;;;26.79;55.97;97413.69;4985608;28;20205;-65
2022/07/24 09:05:09;;;;;;;7.23;6.73;;;;;;;26.76;54.62;97411.56;4982140;28;20220;-65
2022/07/24 09:07:37;;;;;;;7.77;7.20;;;;;;;26.96;55.10;97410.59;4970328;28;20712;-65
2022/07/24 09:10:07;;;;;;;7.37;6.87;;;;;;;27.08;57.93;97409.41;4982551;28;20303;-62
2022/07/24 09:12:38;;;;;;;7.57;7.00;;;;;;;26.98;55.65;97413.00;4935218;28;20709;-65
2022/07/24 09:15:14;;;;;;;7.73;7.07;;;;;;;26.97;53.86;97405.94;4980116;28;20426;-65
2022/07/24 09:17:50;;;;;;;6.83;6.43;;;;;;;27.01;53.83;97407.00;4987214;28;20260;-65
2022/07/24 09:20:20;;;;;;;6.97;6.47;;;;;;;26.77;55.04;97405.03;4984323;28;20502;-66
2022/07/24 09:22:49;;;;;;;6.87;6.27;;;;;;;27.11;54.97;97400.66;4971022;28;20209;-65
2022/07/24 09:25:18;;;;;;;7.87;7.30;;;;;;;27.22;51.41;97396.72;4987609;28;21352;-65
2022/07/24 09:27:48;;;;;;;7.50;6.90;;;;;;;27.27;52.02;97393.16;4943415;28;20216;-64
2022/07/24 09:30:29;;;;;;;7.10;6.60;;;;;;;27.49;48.94;97391.84;4986872;28;20264;-65
2022/07/24 09:32:59;;;;;;;7.80;6.73;;;;;;;27.16;50.04;97393.28;4985787;28;20843;-64
2022/07/24 09:35:31;;;;;;;7.10;6.60;;;;;;;27.32;48.49;97390.38;4991415;28;20632;-66
2022/07/24 09:38:01;;;;;;;7.07;6.67;;;;;;;27.67;51.46;97395.75;4970042;28;20209;-65
2022/07/24 09:40:31;;;;;;;7.60;7.00;;;;;;;27.81;50.01;97390.38;4990689;28;20232;-64
2022/07/24 09:43:17;;;;;;;7.47;6.97;;;;;;;28.23;46.79;97396.97;4939167;28;20209;-63
2022/07/24 09:45:55;;;;;;;7.00;6.40;;;;;;;28.71;46.19;97392.41;4988058;28;20315;-65
2022/07/24 09:48:25;;;;;;;7.87;7.37;;;;;;;28.99;44.83;97378.88;4986659;28;20240;-67
2022/07/24 09:50:54;;;;;;;6.37;5.97;;;;;;;28.50;43.21;97384.56;4985970;28;20548;-64
2022/07/24 09:53:25;;;;;;;6.33;5.80;;;;;;;28.87;44.46;97371.97;4972493;28;20533;-65
2022/07/24 09:56:01;;;;;;;6.10;5.70;;;;;;;28.70;43.59;97374.44;4971601;28;20225;-66
2022/07/24 09:58:30;;;;;;;6.40;6.00;;;;;;;28.85;41.35;97384.31;4979741;28;20293;-65
2022/07/24 10:01:01;;;;;;;6.57;6.17;;;;;;;28.88;41.77;97376.31;4986446;28;20198;-65
2022/07/24 10:03:31;;;;;;;8.20;7.70;;;;;;;28.77;41.19;97380.31;4990916;28;20201;-66
2022/07/24 10:06:02;;;;;;;6.10;5.80;;;;;;;28.75;41.57;97368.91;4986165;28;20246;-65
2022/07/24 10:08:31;;;;;;;7.50;6.90;;;;;;;28.27;43.64;97378.09;4975528;28;20230;-66
2022/07/24 10:10:59;;;;;;;6.70;6.20;;;;;;;28.32;42.78;97369.84;4985387;28;20207;-64
2022/07/24 10:13:28;;;;;;;6.60;6.10;;;;;;;28.41;44.61;97367.25;4941028;28;20319;-64
2022/07/24 10:16:24;;;;;;;6.93;6.50;;;;;;;28.60;41.38;97364.50;4984999;28;20636;-65
2022/07/24 10:18:53;;;;;;;6.57;6.17;;;;;;;28.69;41.17;97365.44;4988283;28;20209;-65
2022/07/24 10:21:24;;;;;;;6.60;6.20;;;;;;;28.80;42.29;97368.84;4985575;28;20513;-67
2022/07/24 10:24:28;;;;;;;5.90;5.50;;;;;;;28.31;43.37;97370.94;4971641;28;20220;-65
2022/07/24 10:27:04;;;;;;;6.50;6.10;;;;;;;28.08;43.37;97367.16;4964517;28;20602;-65
2022/07/24 10:29:34;;;;;;;6.23;5.83;;;;;;;27.67;44.25;97366.63;4983349;28;20859;-66
2022/07/24 10:32:05;;;;;;;6.40;6.00;;;;;;;27.72;45.76;97361.09;4984077;28;20830;-64
2022/07/24 10:34:39;;;;;;;11.30;10.40;;;;;;;27.56;44.20;97371.38;4985459;28;20247;-66
2022/07/24 10:37:19;;;;;;;7.03;6.33;;;;;;;27.60;47.58;97363.44;4982677;28;20623;-64
2022/07/24 10:39:56;;;;;;;6.27;5.87;;;;;;;27.44;44.71;97354.63;4972934;28;20283;-65
2022/07/24 10:42:24;;;;;;;7.17;6.57;;;;;;;27.38;44.72;97358.50;4942405;28;21163;-66
2022/07/24 10:45:14;;;;;;;7.10;6.60;;;;;;;27.44;47.35;97366.31;4986652;28;20263;-63
2022/07/24 10:47:44;;;;;;;6.63;6.17;;;;;;;27.67;46.00;97361.16;4935101;28;20233;-65
2022/07/24 10:50:14;;;;;;;7.23;6.77;;;;;;;27.95;44.19;97358.63;4985689;28;20451;-63
2022/07/24 10:52:42;;;;;;;7.23;6.80;;;;;;;27.76;43.67;97363.25;4983794;28;20210;-63
2022/07/24 10:55:32;;;;;;;7.10;6.60;;;;;;;27.62;45.67;97366.69;4986203;28;20206;-63
2022/07/24 10:58:05;;;;;;;7.27;6.77;;;;;;;27.81;48.07;97353.09;4972549;28;20213;-66
2022/07/24 11:00:36;;;;;;;6.87;6.37;;;;;;;28.41;47.33;97359.09;4988764;28;20434;-65
2022/07/24 11:03:18;;;;;;;7.10;6.50;;;;;;;28.82;43.44;97358.44;4941074;28;20725;-62
2022/07/24 11:06:05;;;;;;;6.80;6.30;;;;;;;29.40;42.38;97344.59;4986395;28;20409;-65
2022/07/24 11:08:38;;;;;;;6.07;5.77;;;;;;;30.01;42.22;97352.63;4982561;28;20525;-65
2022/07/24 11:11:09;;;;;;;7.00;6.60;;;;;;;29.83;41.84;97343.44;4987465;28;20201;-66
2022/07/24 11:13:43;;;;;;;7.00;6.50;;;;;;;29.49;41.03;97341.97;4973731;28;20248;-64
2022/07/24 11:16:27;;;;;;;7.30;6.70;;;;;;;29.86;40.93;97342.81;4987188;28;20221;-65
2022/07/24 11:19:30;;;;;;;7.37;6.93;;;;;;;30.17;38.76;97342.97;4916108;28;20628;-66
2022/07/24 11:22:12;;;;;;;6.93;6.33;;;;;;;29.85;38.97;97341.22;4905965;29;20675;-67
2022/07/24 11:25:16;;;;;;;6.20;5.80;;;;;;;29.51;39.22;97335.06;4890874;29;20220;-65
2022/07/24 11:27:53;;;;;;;6.90;6.40;;;;;;;29.13;40.81;97338.78;4904822;29;20302;-65
2022/07/24 11:30:21;;;;;;;6.87;6.40;;;;;;;28.87;42.48;97327.56;4898701;29;20303;-65